New Vienna, Ohio
Current Conditions -  °F | °C
As of 2:54 PM on Friday 21 Nov 2014 (Local Time) from KILN Reporting Station
Clear Clear  
Wind Chill: 21°   Ceiling: Unl
Heat Index: 26°   Visibility: 10mi
Dew Point: 10°   Wind: 5mph
Humidity: 51%   Direction: 130°SE
Pressure: 30.47"   Gusts: NA
Location:  39.32°N, 83.69°W
Report Text: KILN 211954Z AUTO 13004KT 10SM CLR M03/M12 A3047 RMK AO2 SLP353 T10331122
Loading
Personal Weather Stations






























Interactive Weather Map New forecast layout! Learn more

10-Day Weather Forecast

Advertisements
Track Severe Weather on mobile